Terminal Aerodrome Forecast
Issued by NWS

Home | Current Version | Previous Version | Text Only | Print | Product List | Glossary On
Versions: 1 2 3 4 5 6 7 8 9 10 11 12 13 14 15 16 17
748
FTUS44 KBMX 312320
TAFANB
TAF
KANB 312320Z 0100/0124 07003KT P6SM FEW040
     FM011600 03007KT P6SM SCT040 PROB30 0119/0123 P6SM -TSRA
      SCT040CB=

USA.gov is the U.S. government's official web portal to all federal, state and local government web resources and services.